Accueil
METAR-TAF:

METAR-TAF

Aéroports :

Plate-forme pétrolière

P11-b, Pays-Bas

latitude: 52-21-36N, longitude: 3-20-30E, altitude: 24 m

Observation

Le bulletin a été fait il y a 1 heure et 39 minutes, à 17:55 UTC
Vent 22 kt de sud/sud-est
Température 7°C
Humidité 76%
Pression 1013 hPa
Visibilité 10 km ou plus
Nuages épars à une hauteur de 1800 ft
Nuages fragmentés à une hauteur de 2300 ft

METAR: EHPG 201755Z AUTO 15022KT 9999 SCT018 BKN023 07/03 Q1013 W///H///

Heure: 20:34 (19:34 UTC)


TAF: absent

Observations et prévisions météorologiques de plus de 4000 aéroports (messages METAR et TAF).

Les stations disponibles sont représentées par des disques jaunes et rouges sur la carte.

Passer la souris dessus pour voir le nom de la station.

Cliquer dessus pour voir les observations et prévisions météorologiques.

Pour changer de carte: cliquez sur les boutons verts avec une croix noire pour zoomer, sur le bouton vert avec un tiret pour effectuer un zoom arrière, ou sur les flèches vertes pour les cartes adjacentes.


METAR-TAF: